Details From SVMD - ALBERTO CARNEVALLI
To SKBG - PALONEGRO
Flight Number -
Tags generated
Created
Modified
Stats Distance 151 nm / 280 km
Max Altitude 12,600 ft / 3,840 m
Waypoints 3
Social Downloads 0
Likes 0
Share VATSIM

Download

Looking for another format? Having issues loading an existing format? Contact us
Advertisement - Login to hide

Notes

Basic altitude profile: - Ascent Rate: 2500ft/min - Ascent Speed: 250kts - Cruise Altitude: 35000ft - Cruise Speed: 420kts - Descent Rate: 1500ft/min - Descent Speed: 250kts Options: - Use NATs: yes - Use PACOTS: yes - Use low airways: yes - Use high airways: yes

Route

SVMD BABOR SKBG

ID Type Via Altitude Latitude Longitude Leg Dist Tot Dist Heading (true) Name
O SVMD APT - 0 ft / 0 m 8.58197˚ -71.16139˚ - 0 nm - ALBERTO CARNEVALLI
BABOR FIX - 12,600 ft / 3,840 m 7.91972˚ -72.47361˚ 87 nm 87 nm 243° / 243° -
O SKBG APT - 0 ft / 0 m 7.12650˚ -73.18476˚ 63 nm 151 nm 222° / 222° PALONEGRO

Altitude Profile

Advertisement - Login to hide

SVMD

Details ICAO SVMD (MRD)
Name ALBERTO CARNEVALLI
Region Venezuela
Timezone America/Caracas (UTC-4.0)
Stats Elevation 5,007 ft / 1,526 m (AMSL)
Location 8.581969° -71.161390°
Runways 1
Magnetic Variation 9.687° W

METAR

SVMD 162000Z 23012KT 9999 SCT023 25/16 Q1019

Decode

TAF

Not found

Departure Runways

ID Width Length Bearing (true) Bearing (mag) Surface Threshold Offset Overrun Length
06 148 ft / 45 m 5,178 ft / 1,578 m 58.73° 68.42° Asphalt 0 ft / 0 m 0 ft / 0 m
24 148 ft / 45 m 5,178 ft / 1,578 m 238.73° 248.42° Asphalt 0 ft / 0 m 0 ft / 0 m

SKBG

Details ICAO SKBG (BGA)
Name PALONEGRO
Region Colombia
Timezone America/Bogota (UTC-5.0)
Stats Elevation 3,896 ft / 1,188 m (AMSL)
Location 7.126500° -73.184764°
Runways 1
Magnetic Variation 8.232° W

METAR

SKBG 162100Z 32005KT 9999 SCT015 25/20 A2991 WS R35

Decode

TAF

TAF SKBG 161100Z 1612/1712 17006KT 9999 FEW017 SCT090 BECMG 1616/1618 32007KT TX27/1618Z TN18/1711Z

Decode

Destination Runways

ID Width Length Bearing (true) Bearing (mag) Surface Threshold Offset Overrun Length
16 164 ft / 50 m 7,452 ft / 2,271 m 159.37° 167.60° Asphalt 0 ft / 0 m 0 ft / 0 m
34 164 ft / 50 m 7,452 ft / 2,271 m 339.37° 347.60° Asphalt 0 ft / 0 m 0 ft / 0 m

Approach Navaids

Runway Type Ident Frequency Range Bearing (true) Bearing (mag) Slope Elevation
34 Localiser IBGA 110.70 MHz 18 nm / 33 km 339.37° 347.60° - 3,897 ft / 1,188 m (AMSL)
34 Glidescope IBGA 110.70 MHz 10 nm / 19 km 339.37° 347.60° 3.00° 3,897 ft / 1,188 m (AMSL)
34 DME IBGA 110.70 MHz 18 nm / 33 km - - - 3,897 ft / 1,188 m (AMSL)

Popular Alternatives